RYR150 LKPR-EKCH
Flight info
| Callsign | RYR150 |
|---|---|
| Flight time | 1h 8m |
| Altitude | 35000 |
| Route | VENOX DCT DEKOV Y621 GARKI DCT POGAB Z36 OBANI/N0441F340 M725 GERGA T239 PEROM T298 MONAK |
| Aircraft | B738/M-SDE2E3FGHIRWXY/LB1 |
Departure
| Time | 2026-05-04 09:39 |
|---|---|
| Airport | Václav Havel Airport Prague (LKPR) |
Arrival
| Time | 2026-05-04 10:47 |
|---|---|
| Airport | Copenhagen Kastrup Airport (EKCH) |
| Time | Latitude | Longitude | Altitude | Speed | Heading |
|---|---|---|---|---|---|
| 2026-05-04 09:09 | 50.10412 | 14.26633 | 1170 ft | 0 kts | 34° |
| 2026-05-04 09:30 | 50.10406 | 14.26626 | 1175 ft | 2 kts | 33° |
| 2026-05-04 09:30 | 50.10391 | 14.26613 | 1173 ft | 2 kts | 26° |
| 2026-05-04 09:31 | 50.10376 | 14.26605 | 1170 ft | 2 kts | 352° |
| 2026-05-04 09:31 | 50.10363 | 14.26617 | 1174 ft | 1 kts | 305° |
| 2026-05-04 09:31 | 50.10361 | 14.26622 | 1174 ft | 0 kts | 303° |
| 2026-05-04 09:34 | 50.10505 | 14.26315 | 1175 ft | 20 kts | 305° |
| 2026-05-04 09:34 | 50.10569 | 14.26122 | 1173 ft | 17 kts | 303° |
| 2026-05-04 09:34 | 50.10530 | 14.25978 | 1172 ft | 18 kts | 192° |
| 2026-05-04 09:34 | 50.10437 | 14.26108 | 1175 ft | 21 kts | 127° |
| 2026-05-04 09:35 | 50.10339 | 14.26311 | 1172 ft | 25 kts | 127° |
| 2026-05-04 09:35 | 50.10233 | 14.26530 | 1171 ft | 26 kts | 127° |
| 2026-05-04 09:35 | 50.10122 | 14.26759 | 1171 ft | 27 kts | 127° |
| 2026-05-04 09:35 | 50.10009 | 14.26992 | 1175 ft | 26 kts | 127° |
| 2026-05-04 09:37 | 50.09165 | 14.28277 | 1175 ft | 22 kts | 198° |
| 2026-05-04 09:37 | 50.09098 | 14.28086 | 1175 ft | 22 kts | 282° |
| 2026-05-04 09:38 | 50.09176 | 14.27893 | 1175 ft | 21 kts | 307° |
| 2026-05-04 09:38 | 50.09308 | 14.27622 | 1171 ft | 58 kts | 307° |
| 2026-05-04 09:38 | 50.09681 | 14.26852 | 1174 ft | 118 kts | 307° |
| 2026-05-04 09:38 | 50.10279 | 14.25628 | 1216 ft | 161 kts | 308° |
| 2026-05-04 09:39 | 50.10966 | 14.24224 | 1791 ft | 164 kts | 308° |
| 2026-05-04 09:39 | 50.11663 | 14.22786 | 2464 ft | 166 kts | 309° |
| 2026-05-04 09:39 | 50.12389 | 14.21319 | 3014 ft | 178 kts | 308° |
| 2026-05-04 09:39 | 50.13147 | 14.19740 | 3656 ft | 187 kts | 308° |
| 2026-05-04 09:40 | 50.13985 | 14.17987 | 3912 ft | 213 kts | 306° |
| 2026-05-04 09:40 | 50.14920 | 14.16017 | 4134 ft | 237 kts | 306° |
| 2026-05-04 09:40 | 50.15954 | 14.13850 | 4472 ft | 260 kts | 305° |
| 2026-05-04 09:40 | 50.17040 | 14.11576 | 4930 ft | 265 kts | 305° |
| 2026-05-04 09:41 | 50.18151 | 14.09261 | 4897 ft | 263 kts | 306° |
| 2026-05-04 09:42 | 50.28741 | 14.01798 | 8621 ft | 296 kts | 14° |
| 2026-05-04 09:43 | 50.30734 | 14.02700 | 9356 ft | 300 kts | 14° |
| 2026-05-04 09:43 | 50.32761 | 14.03612 | 10083 ft | 305 kts | 14° |
| 2026-05-04 09:43 | 50.34844 | 14.04534 | 10468 ft | 322 kts | 13° |
| 2026-05-04 09:43 | 50.37078 | 14.05504 | 10690 ft | 343 kts | 14° |
| 2026-05-04 09:44 | 50.39418 | 14.06513 | 11197 ft | 353 kts | 13° |
| 2026-05-04 09:44 | 50.41786 | 14.07529 | 11980 ft | 353 kts | 14° |
| 2026-05-04 09:44 | 50.44173 | 14.08551 | 12697 ft | 358 kts | 14° |
| 2026-05-04 09:46 | 50.61754 | 14.15011 | 16377 ft | 384 kts | 6° |
| 2026-05-04 09:46 | 50.64402 | 14.15597 | 17191 ft | 383 kts | 6° |
| 2026-05-04 09:46 | 50.67047 | 14.16195 | 17977 ft | 384 kts | 6° |
| 2026-05-04 09:47 | 50.69706 | 14.16813 | 18597 ft | 388 kts | 6° |
| 2026-05-04 09:47 | 50.72399 | 14.17452 | 19172 ft | 392 kts | 6° |
| 2026-05-04 09:49 | 50.91804 | 14.21335 | 23198 ft | 410 kts | 351° |
| 2026-05-04 09:49 | 50.94642 | 14.20725 | 23726 ft | 412 kts | 348° |
| 2026-05-04 09:49 | 50.97475 | 14.20028 | 24191 ft | 414 kts | 348° |
| 2026-05-04 09:51 | 51.14842 | 14.16288 | 26892 ft | 427 kts | 350° |
| 2026-05-04 09:51 | 51.17801 | 14.15712 | 27311 ft | 429 kts | 349° |
| 2026-05-04 09:51 | 51.20774 | 14.15130 | 27742 ft | 431 kts | 349° |
| 2026-05-04 09:51 | 51.23767 | 14.14539 | 28139 ft | 434 kts | 349° |
| 2026-05-04 09:52 | 51.26767 | 14.13943 | 28527 ft | 436 kts | 349° |
| 2026-05-04 09:52 | 51.29787 | 14.13341 | 28902 ft | 438 kts | 349° |
| 2026-05-04 09:52 | 51.32819 | 14.12735 | 29283 ft | 440 kts | 349° |
| 2026-05-04 09:52 | 51.35865 | 14.12127 | 29665 ft | 442 kts | 349° |
| 2026-05-04 09:53 | 51.38904 | 14.11516 | 30007 ft | 444 kts | 348° |
| 2026-05-04 09:53 | 51.41984 | 14.10761 | 30297 ft | 445 kts | 346° |
| 2026-05-04 09:53 | 51.45028 | 14.09885 | 30651 ft | 444 kts | 345° |
| 2026-05-04 09:53 | 51.48053 | 14.08975 | 31064 ft | 443 kts | 345° |
| 2026-05-04 09:54 | 51.51098 | 14.08058 | 31456 ft | 442 kts | 345° |
| 2026-05-04 09:54 | 51.54127 | 14.07161 | 31796 ft | 443 kts | 345° |
| 2026-05-04 09:54 | 51.57156 | 14.06277 | 32114 ft | 444 kts | 345° |
| 2026-05-04 09:54 | 51.60164 | 14.05410 | 32466 ft | 444 kts | 345° |
| 2026-05-04 09:55 | 51.63222 | 14.04533 | 32821 ft | 443 kts | 345° |
| 2026-05-04 09:55 | 51.66229 | 14.03671 | 33160 ft | 443 kts | 345° |
| 2026-05-04 09:55 | 51.69267 | 14.02798 | 33465 ft | 443 kts | 345° |
| 2026-05-04 09:55 | 51.72308 | 14.01922 | 33782 ft | 444 kts | 345° |
| 2026-05-04 09:56 | 51.75353 | 14.01044 | 34092 ft | 443 kts | 345° |
| 2026-05-04 09:56 | 51.78384 | 14.00169 | 34357 ft | 443 kts | 345° |
| 2026-05-04 09:56 | 51.81427 | 13.99291 | 34627 ft | 444 kts | 345° |
| 2026-05-04 09:56 | 51.84512 | 13.98804 | 34866 ft | 450 kts | 354° |
| 2026-05-04 09:57 | 51.87663 | 13.99088 | 35007 ft | 458 kts | 4° |
| 2026-05-04 09:57 | 51.93978 | 14.00967 | 35005 ft | 462 kts | 7° |
| 2026-05-04 09:58 | 52.00205 | 14.02989 | 34989 ft | 455 kts | 6° |
| 2026-05-04 09:58 | 52.06422 | 14.04890 | 35011 ft | 454 kts | 6° |
| 2026-05-04 10:00 | 52.28224 | 14.09737 | 34999 ft | 442 kts | 346° |
| 2026-05-04 10:00 | 52.31270 | 14.09018 | 35003 ft | 442 kts | 346° |
| 2026-05-04 10:04 | 52.73607 | 13.96700 | 34979 ft | 439 kts | 338° |
| 2026-05-04 10:04 | 52.79494 | 13.93990 | 34988 ft | 438 kts | 338° |
| 2026-05-04 10:05 | 52.85356 | 13.91299 | 34987 ft | 437 kts | 338° |
| 2026-05-04 10:05 | 52.91171 | 13.88612 | 34981 ft | 436 kts | 338° |
| 2026-05-04 10:06 | 52.96984 | 13.85916 | 34979 ft | 435 kts | 338° |
| 2026-05-04 10:06 | 53.02830 | 13.83198 | 34978 ft | 435 kts | 338° |
| 2026-05-04 10:08 | 53.23293 | 13.73640 | 34978 ft | 438 kts | 338° |
| 2026-05-04 10:08 | 53.29168 | 13.70883 | 34972 ft | 439 kts | 338° |
| 2026-05-04 10:09 | 53.35063 | 13.68109 | 34974 ft | 440 kts | 338° |
| 2026-05-04 10:09 | 53.40964 | 13.65323 | 34973 ft | 441 kts | 338° |
| 2026-05-04 10:10 | 53.46891 | 13.62517 | 34967 ft | 442 kts | 338° |
| 2026-05-04 10:10 | 53.52789 | 13.59717 | 34965 ft | 443 kts | 338° |
| 2026-05-04 10:11 | 53.58710 | 13.56825 | 34962 ft | 443 kts | 337° |
| 2026-05-04 10:11 | 53.64626 | 13.53892 | 34961 ft | 443 kts | 337° |
| 2026-05-04 10:12 | 53.70451 | 13.51019 | 34941 ft | 426 kts | 337° |
| 2026-05-04 10:12 | 53.76115 | 13.48202 | 34960 ft | 422 kts | 337° |
| 2026-05-04 10:13 | 53.78947 | 13.46801 | 34755 ft | 426 kts | 337° |
| 2026-05-04 10:13 | 53.81784 | 13.45421 | 34449 ft | 422 kts | 337° |
| 2026-05-04 10:13 | 53.84561 | 13.44081 | 34086 ft | 419 kts | 337° |
| 2026-05-04 10:13 | 53.87345 | 13.42737 | 33698 ft | 415 kts | 337° |
| 2026-05-04 10:14 | 53.90119 | 13.41393 | 33284 ft | 412 kts | 337° |
| 2026-05-04 10:14 | 53.92863 | 13.40058 | 32914 ft | 409 kts | 337° |
| 2026-05-04 10:16 | 54.10555 | 13.31383 | 30537 ft | 386 kts | 336° |
| 2026-05-04 10:16 | 54.13128 | 13.30115 | 30194 ft | 383 kts | 336° |
| 2026-05-04 10:16 | 54.15678 | 13.28855 | 29831 ft | 380 kts | 336° |
| 2026-05-04 10:16 | 54.18209 | 13.27605 | 29463 ft | 376 kts | 336° |
| 2026-05-04 10:17 | 54.20709 | 13.26369 | 29097 ft | 371 kts | 335° |
| 2026-05-04 10:17 | 54.23181 | 13.25144 | 28748 ft | 367 kts | 335° |
| 2026-05-04 10:19 | 54.39780 | 13.16873 | 26336 ft | 346 kts | 334° |
| 2026-05-04 10:19 | 54.42086 | 13.15719 | 26021 ft | 343 kts | 334° |
| 2026-05-04 10:19 | 54.44346 | 13.14491 | 25685 ft | 335 kts | 327° |
| 2026-05-04 10:19 | 54.46376 | 13.12659 | 25401 ft | 320 kts | 317° |
| 2026-05-04 10:20 | 54.48080 | 13.10372 | 25192 ft | 306 kts | 308° |
| 2026-05-04 10:20 | 54.49606 | 13.07857 | 24911 ft | 304 kts | 307° |
| 2026-05-04 10:20 | 54.51116 | 13.05299 | 24605 ft | 306 kts | 306° |
| 2026-05-04 10:20 | 54.52653 | 13.02675 | 24309 ft | 318 kts | 307° |
| 2026-05-04 10:21 | 54.54247 | 12.99958 | 23949 ft | 327 kts | 307° |
| 2026-05-04 10:21 | 54.55877 | 12.97206 | 23611 ft | 326 kts | 307° |
| 2026-05-04 10:21 | 54.57499 | 12.94482 | 23219 ft | 325 kts | 307° |
| 2026-05-04 10:21 | 54.59113 | 12.91771 | 22841 ft | 323 kts | 308° |
| 2026-05-04 10:22 | 54.62282 | 12.86440 | 22154 ft | 318 kts | 308° |
| 2026-05-04 10:22 | 54.63853 | 12.83792 | 21825 ft | 315 kts | 308° |
| 2026-05-04 10:22 | 54.65415 | 12.81154 | 21488 ft | 313 kts | 308° |
| 2026-05-04 10:23 | 54.66972 | 12.78524 | 21159 ft | 311 kts | 308° |
| 2026-05-04 10:23 | 54.68510 | 12.75922 | 20838 ft | 308 kts | 308° |
| 2026-05-04 10:25 | 54.78980 | 12.58113 | 18628 ft | 298 kts | 309° |
| 2026-05-04 10:25 | 54.80445 | 12.55611 | 18432 ft | 293 kts | 309° |
| 2026-05-04 10:25 | 54.81893 | 12.53135 | 18117 ft | 292 kts | 309° |
| 2026-05-04 10:25 | 54.83329 | 12.50676 | 17803 ft | 290 kts | 309° |
| 2026-05-04 10:26 | 54.84763 | 12.48219 | 17506 ft | 288 kts | 309° |
| 2026-05-04 10:26 | 54.86182 | 12.45785 | 17202 ft | 286 kts | 309° |
| 2026-05-04 10:26 | 54.87574 | 12.43394 | 16910 ft | 284 kts | 309° |
| 2026-05-04 10:26 | 54.88974 | 12.40989 | 16606 ft | 282 kts | 309° |
| 2026-05-04 10:27 | 54.90367 | 12.38590 | 16295 ft | 281 kts | 309° |
| 2026-05-04 10:27 | 54.91753 | 12.36205 | 16005 ft | 279 kts | 309° |
| 2026-05-04 10:27 | 54.93369 | 12.34270 | 15666 ft | 291 kts | 333° |
| 2026-05-04 10:27 | 54.95394 | 12.33669 | 15386 ft | 303 kts | 359° |
| 2026-05-04 10:28 | 54.97442 | 12.34665 | 15106 ft | 313 kts | 25° |
| 2026-05-04 10:28 | 54.99278 | 12.36710 | 14850 ft | 315 kts | 30° |
| 2026-05-04 10:28 | 55.01099 | 12.38903 | 14537 ft | 320 kts | 31° |
| 2026-05-04 10:28 | 55.02947 | 12.41109 | 14213 ft | 325 kts | 30° |
| 2026-05-04 10:29 | 55.04833 | 12.43340 | 13892 ft | 329 kts | 30° |
| 2026-05-04 10:29 | 55.06731 | 12.45576 | 13537 ft | 329 kts | 30° |
| 2026-05-04 10:29 | 55.08629 | 12.47807 | 13189 ft | 328 kts | 30° |
| 2026-05-04 10:29 | 55.10516 | 12.50022 | 12854 ft | 326 kts | 30° |
| 2026-05-04 10:30 | 55.12390 | 12.52223 | 12525 ft | 325 kts | 30° |
| 2026-05-04 10:30 | 55.14263 | 12.54423 | 12208 ft | 323 kts | 30° |
| 2026-05-04 10:30 | 55.16125 | 12.56611 | 11891 ft | 321 kts | 30° |
| 2026-05-04 10:30 | 55.17951 | 12.58759 | 11583 ft | 320 kts | 30° |
| 2026-05-04 10:31 | 55.19818 | 12.60958 | 11263 ft | 319 kts | 30° |
| 2026-05-04 10:31 | 55.21654 | 12.63123 | 10955 ft | 318 kts | 30° |
| 2026-05-04 10:32 | 55.32857 | 12.70446 | 9401 ft | 298 kts | 13° |
| 2026-05-04 10:33 | 55.33523 | 12.70823 | 9297 ft | 297 kts | 13° |
| 2026-05-04 10:33 | 55.36027 | 12.72250 | 8909 ft | 295 kts | 13° |
| 2026-05-04 10:33 | 55.37966 | 12.73359 | 8666 ft | 292 kts | 13° |
| 2026-05-04 10:33 | 55.39896 | 12.74465 | 8420 ft | 289 kts | 13° |
| 2026-05-04 10:34 | 55.41774 | 12.75542 | 8284 ft | 279 kts | 13° |
| 2026-05-04 10:34 | 55.43573 | 12.76578 | 8190 ft | 264 kts | 13° |
| 2026-05-04 10:34 | 55.45272 | 12.77557 | 8080 ft | 250 kts | 13° |
| 2026-05-04 10:34 | 55.46890 | 12.78489 | 7978 ft | 238 kts | 13° |
| 2026-05-04 10:35 | 55.48452 | 12.79382 | 7504 ft | 243 kts | 13° |
| 2026-05-04 10:35 | 55.50054 | 12.80299 | 7187 ft | 241 kts | 13° |
| 2026-05-04 10:35 | 55.51631 | 12.81206 | 6940 ft | 235 kts | 13° |
| 2026-05-04 10:35 | 55.53175 | 12.82097 | 6727 ft | 229 kts | 13° |
| 2026-05-04 10:36 | 55.54651 | 12.82950 | 6516 ft | 223 kts | 13° |
| 2026-05-04 10:36 | 55.56098 | 12.83811 | 6323 ft | 218 kts | 16° |
| 2026-05-04 10:36 | 55.57503 | 12.84803 | 6140 ft | 218 kts | 18° |
| 2026-05-04 10:36 | 55.58904 | 12.85824 | 5964 ft | 217 kts | 18° |
| 2026-05-04 10:37 | 55.60302 | 12.86839 | 5754 ft | 217 kts | 17° |
| 2026-05-04 10:37 | 55.61695 | 12.87847 | 5587 ft | 217 kts | 17° |
| 2026-05-04 10:37 | 55.63069 | 12.89008 | 5370 ft | 222 kts | 32° |
| 2026-05-04 10:37 | 55.64236 | 12.90825 | 5212 ft | 222 kts | 39° |
| 2026-05-04 10:39 | 55.70760 | 13.01145 | 4162 ft | 195 kts | 38° |
| 2026-05-04 10:39 | 55.71777 | 13.02738 | 4019 ft | 195 kts | 37° |
| 2026-05-04 10:39 | 55.72861 | 13.04016 | 3887 ft | 185 kts | 8° |
| 2026-05-04 10:40 | 55.74057 | 13.03850 | 3845 ft | 171 kts | 329° |
| 2026-05-04 10:40 | 55.74949 | 13.02539 | 3786 ft | 169 kts | 298° |
| 2026-05-04 10:40 | 55.75298 | 13.00578 | 3701 ft | 166 kts | 269° |
| 2026-05-04 10:40 | 55.75079 | 12.98586 | 3645 ft | 164 kts | 257° |
| 2026-05-04 10:41 | 55.74820 | 12.96635 | 3561 ft | 162 kts | 257° |
| 2026-05-04 10:41 | 55.74559 | 12.94685 | 3472 ft | 161 kts | 257° |
| 2026-05-04 10:41 | 55.74297 | 12.92768 | 3401 ft | 159 kts | 257° |
| 2026-05-04 10:41 | 55.74037 | 12.90892 | 3337 ft | 154 kts | 257° |
| 2026-05-04 10:42 | 55.73781 | 12.89059 | 3260 ft | 152 kts | 257° |
| 2026-05-04 10:42 | 55.73527 | 12.87251 | 3199 ft | 152 kts | 257° |
| 2026-05-04 10:42 | 55.73278 | 12.85491 | 3124 ft | 145 kts | 257° |
| 2026-05-04 10:42 | 55.73035 | 12.83771 | 3022 ft | 145 kts | 257° |
| 2026-05-04 10:43 | 55.72766 | 12.82046 | 2980 ft | 144 kts | 247° |
| 2026-05-04 10:44 | 55.67701 | 12.73526 | 1748 ft | 142 kts | 224° |
| 2026-05-04 10:45 | 55.66970 | 12.72393 | 1533 ft | 142 kts | 224° |
| 2026-05-04 10:45 | 55.66211 | 12.71214 | 1348 ft | 144 kts | 224° |
| 2026-05-04 10:45 | 55.65471 | 12.70066 | 1135 ft | 138 kts | 223° |
| 2026-05-04 10:45 | 55.64746 | 12.68941 | 941 ft | 139 kts | 224° |
| 2026-05-04 10:46 | 55.64007 | 12.67793 | 764 ft | 143 kts | 224° |
| 2026-05-04 10:46 | 55.63266 | 12.66642 | 578 ft | 141 kts | 225° |
| 2026-05-04 10:46 | 55.62539 | 12.65480 | 373 ft | 140 kts | 224° |
| 2026-05-04 10:46 | 55.61805 | 12.64353 | 171 ft | 138 kts | 224° |
| 2026-05-04 10:47 | 55.61097 | 12.63253 | 27 ft | 133 kts | 224° |
| 2026-05-04 10:47 | 55.60529 | 12.62374 | 26 ft | 78 kts | 220° |
| 2026-05-04 10:47 | 55.60242 | 12.61933 | 20 ft | 45 kts | 221° |
| 2026-05-04 10:47 | 55.60043 | 12.61622 | 22 ft | 23 kts | 222° |
| 2026-05-04 10:49 | 55.60464 | 12.62023 | 22 ft | 27 kts | 41° |
| 2026-05-04 10:49 | 55.60624 | 12.62271 | 25 ft | 32 kts | 40° |
| 2026-05-04 10:50 | 55.60830 | 12.62460 | 27 ft | 35 kts | 40° |
| 2026-05-04 10:51 | 55.61654 | 12.63735 | 27 ft | 0 kts | 40° |
| 2026-05-04 10:52 | 55.61664 | 12.63750 | 23 ft | 4 kts | 40° |
| 2026-05-04 10:52 | 55.61699 | 12.63802 | 28 ft | 8 kts | 40° |
| 2026-05-04 10:54 | 55.62437 | 12.64641 | 22 ft | 11 kts | 124° |
| 2026-05-04 10:54 | 55.62417 | 12.64777 | 20 ft | 11 kts | 82° |